Wendt, South Dakota
Current Conditions -  °F | °C
As of 11:53 AM on Saturday 25 Oct 2014 (Local Time) from KPIR Reporting Station
Clear Clear  
Wind Chill: 60°   Ceiling: Unl
Heat Index: 60°   Visibility: 10mi
Dew Point: 33°   Wind: 5mph
Humidity: 36%   Direction: 140°SE
Pressure: 30.16"   Gusts: NA
Location:  44.3693°N, 100.04°W
Report Text: KPIR 251653Z AUTO 14004KT 10SM CLR 16/01 A3016 RMK AO2 SLP210 T01560006
Loading
Personal Weather Stations






























Interactive Weather Map
Tropical Storm Tracking
New forecast layout! Learn more

10-Day Weather Forecast

Advertisements
Track Severe Weather on mobile